EWG8A EDDH-EDDS
Flight info
| Callsign | EWG8A |
|---|---|
| Flight time | 0h 51m |
| Altitude | 35000 |
| Route | IDEKO7G/33 IDEKO N850 NIE DCT BERXO DCT SILWE DCT OSBIT P605 TOSTU T726 LBU |
| Aircraft | A320/M-SDE3FGHIRWY/LB1 |
Departure
| Time | 2026-04-25 19:51 |
|---|---|
| Airport | Hamburg Helmut Schmidt Airport (EDDH) |
Arrival
| Time | 2026-04-25 20:42 |
|---|---|
| Airport | Stuttgart Airport (EDDS) |
| Time | Latitude | Longitude | Altitude | Speed | Heading |
|---|---|---|---|---|---|
| 2026-04-25 19:25 | 53.63292 | 10.00358 | 49 ft | 0 kts | 87° |
| 2026-04-25 19:42 | 53.63292 | 10.00351 | 48 ft | 3 kts | 87° |
| 2026-04-25 19:42 | 53.63291 | 10.00306 | 48 ft | 4 kts | 92° |
| 2026-04-25 19:42 | 53.63295 | 10.00262 | 48 ft | 4 kts | 114° |
| 2026-04-25 19:43 | 53.63308 | 10.00235 | 48 ft | 2 kts | 174° |
| 2026-04-25 19:43 | 53.63310 | 10.00235 | 48 ft | 0 kts | 176° |
| 2026-04-25 19:45 | 53.63304 | 10.00236 | 48 ft | 6 kts | 175° |
| 2026-04-25 19:46 | 53.63221 | 10.00180 | 48 ft | 15 kts | 190° |
| 2026-04-25 19:46 | 53.63121 | 10.00192 | 48 ft | 14 kts | 175° |
| 2026-04-25 19:46 | 53.63018 | 10.00130 | 48 ft | 19 kts | 213° |
| 2026-04-25 19:46 | 53.62919 | 9.99988 | 47 ft | 17 kts | 242° |
| 2026-04-25 19:47 | 53.62894 | 9.99907 | 47 ft | 0 kts | 243° |
| 2026-04-25 19:48 | 53.62890 | 9.99894 | 47 ft | 7 kts | 243° |
| 2026-04-25 19:48 | 53.62873 | 9.99746 | 45 ft | 8 kts | 314° |
| 2026-04-25 19:49 | 53.62911 | 9.99707 | 42 ft | 5 kts | 331° |
| 2026-04-25 19:49 | 53.62913 | 9.99706 | 42 ft | 0 kts | 333° |
| 2026-04-25 19:50 | 53.62990 | 9.99639 | 44 ft | 40 kts | 332° |
| 2026-04-25 19:50 | 53.63453 | 9.99239 | 46 ft | 106 kts | 333° |
| 2026-04-25 19:50 | 53.64266 | 9.98532 | 54 ft | 155 kts | 333° |
| 2026-04-25 19:51 | 53.65249 | 9.97697 | 622 ft | 156 kts | 332° |
| 2026-04-25 19:51 | 53.66235 | 9.96886 | 1303 ft | 160 kts | 331° |
| 2026-04-25 19:51 | 53.67295 | 9.95999 | 1686 ft | 180 kts | 330° |
| 2026-04-25 19:51 | 53.68465 | 9.94966 | 2081 ft | 199 kts | 329° |
| 2026-04-25 19:52 | 53.69680 | 9.93907 | 3029 ft | 193 kts | 329° |
| 2026-04-25 19:52 | 53.70849 | 9.92885 | 3939 ft | 189 kts | 320° |
| 2026-04-25 19:52 | 53.71549 | 9.91069 | 4689 ft | 192 kts | 285° |
| 2026-04-25 19:52 | 53.71423 | 9.88653 | 5140 ft | 226 kts | 259° |
| 2026-04-25 19:53 | 53.70875 | 9.86029 | 5665 ft | 246 kts | 258° |
| 2026-04-25 19:53 | 53.70306 | 9.83310 | 6537 ft | 249 kts | 258° |
| 2026-04-25 19:53 | 53.69734 | 9.80523 | 7347 ft | 253 kts | 259° |
| 2026-04-25 19:53 | 53.69164 | 9.77700 | 8204 ft | 255 kts | 259° |
| 2026-04-25 19:54 | 53.68595 | 9.74844 | 9057 ft | 258 kts | 259° |
| 2026-04-25 19:54 | 53.68025 | 9.71961 | 9822 ft | 260 kts | 260° |
| 2026-04-25 19:54 | 53.67447 | 9.69036 | 10464 ft | 270 kts | 260° |
| 2026-04-25 19:54 | 53.67247 | 9.68012 | 10563 ft | 278 kts | 260° |
| 2026-04-25 19:55 | 53.66080 | 9.62701 | 11324 ft | 310 kts | 248° |
| 2026-04-25 19:55 | 53.64643 | 9.59765 | 12075 ft | 332 kts | 230° |
| 2026-04-25 19:55 | 53.62606 | 9.57710 | 12829 ft | 355 kts | 210° |
| 2026-04-25 19:55 | 53.60109 | 9.56829 | 13484 ft | 375 kts | 195° |
| 2026-04-25 19:56 | 53.57506 | 9.56319 | 14122 ft | 380 kts | 195° |
| 2026-04-25 19:56 | 53.54861 | 9.55823 | 14749 ft | 385 kts | 195° |
| 2026-04-25 19:56 | 53.52184 | 9.55318 | 15355 ft | 390 kts | 195° |
| 2026-04-25 19:56 | 53.49468 | 9.54797 | 15957 ft | 394 kts | 195° |
| 2026-04-25 19:57 | 53.46730 | 9.54266 | 16530 ft | 399 kts | 195° |
| 2026-04-25 19:57 | 53.43955 | 9.53724 | 17097 ft | 404 kts | 195° |
| 2026-04-25 19:57 | 53.41150 | 9.53178 | 17674 ft | 408 kts | 195° |
| 2026-04-25 19:57 | 53.38321 | 9.52628 | 18240 ft | 412 kts | 195° |
| 2026-04-25 19:58 | 53.35469 | 9.52069 | 18792 ft | 415 kts | 195° |
| 2026-04-25 19:58 | 53.32579 | 9.51500 | 19347 ft | 418 kts | 195° |
| 2026-04-25 19:58 | 53.29728 | 9.50941 | 19891 ft | 421 kts | 195° |
| 2026-04-25 19:58 | 53.26757 | 9.50359 | 20402 ft | 425 kts | 195° |
| 2026-04-25 19:59 | 53.23799 | 9.49776 | 20917 ft | 428 kts | 195° |
| 2026-04-25 19:59 | 53.20873 | 9.49200 | 21413 ft | 431 kts | 194° |
| 2026-04-25 19:59 | 53.17889 | 9.48613 | 21914 ft | 433 kts | 194° |
| 2026-04-25 19:59 | 53.14883 | 9.48026 | 22402 ft | 436 kts | 194° |
| 2026-04-25 20:00 | 53.11856 | 9.47442 | 22861 ft | 439 kts | 194° |
| 2026-04-25 20:00 | 53.10831 | 9.47246 | 23010 ft | 440 kts | 194° |
| 2026-04-25 20:00 | 53.05747 | 9.46273 | 23744 ft | 445 kts | 194° |
| 2026-04-25 20:00 | 53.02665 | 9.45676 | 24195 ft | 446 kts | 194° |
| 2026-04-25 20:01 | 52.96462 | 9.44493 | 25051 ft | 453 kts | 190° |
| 2026-04-25 20:01 | 52.93285 | 9.44768 | 25433 ft | 466 kts | 176° |
| 2026-04-25 20:01 | 52.90071 | 9.45604 | 25838 ft | 468 kts | 176° |
| 2026-04-25 20:02 | 52.86844 | 9.46489 | 26226 ft | 470 kts | 175° |
| 2026-04-25 20:02 | 52.84706 | 9.47090 | 26484 ft | 471 kts | 175° |
| 2026-04-25 20:02 | 52.81468 | 9.48007 | 26860 ft | 473 kts | 175° |
| 2026-04-25 20:02 | 52.78216 | 9.48923 | 27237 ft | 475 kts | 175° |
| 2026-04-25 20:03 | 52.74946 | 9.49828 | 27586 ft | 477 kts | 175° |
| 2026-04-25 20:03 | 52.71667 | 9.50722 | 27943 ft | 478 kts | 175° |
| 2026-04-25 20:03 | 52.68377 | 9.51610 | 28267 ft | 480 kts | 175° |
| 2026-04-25 20:03 | 52.65079 | 9.52500 | 28608 ft | 482 kts | 175° |
| 2026-04-25 20:04 | 52.61756 | 9.53396 | 28936 ft | 484 kts | 175° |
| 2026-04-25 20:04 | 52.58420 | 9.54272 | 29255 ft | 486 kts | 175° |
| 2026-04-25 20:04 | 52.55081 | 9.55127 | 29558 ft | 487 kts | 175° |
| 2026-04-25 20:04 | 52.51721 | 9.55980 | 29856 ft | 489 kts | 175° |
| 2026-04-25 20:05 | 52.48354 | 9.56832 | 30148 ft | 491 kts | 175° |
| 2026-04-25 20:05 | 52.44974 | 9.57685 | 30436 ft | 492 kts | 175° |
| 2026-04-25 20:05 | 52.41581 | 9.58545 | 30717 ft | 494 kts | 175° |
| 2026-04-25 20:05 | 52.38182 | 9.59416 | 30988 ft | 495 kts | 175° |
| 2026-04-25 20:06 | 52.34772 | 9.60295 | 31243 ft | 497 kts | 175° |
| 2026-04-25 20:06 | 52.31351 | 9.61176 | 31512 ft | 497 kts | 175° |
| 2026-04-25 20:06 | 52.27935 | 9.62052 | 31870 ft | 496 kts | 175° |
| 2026-04-25 20:06 | 52.24530 | 9.62919 | 32229 ft | 495 kts | 175° |
| 2026-04-25 20:07 | 52.21177 | 9.63772 | 32594 ft | 494 kts | 175° |
| 2026-04-25 20:07 | 52.17788 | 9.64632 | 32948 ft | 492 kts | 175° |
| 2026-04-25 20:07 | 52.14407 | 9.65488 | 33294 ft | 491 kts | 175° |
| 2026-04-25 20:07 | 52.11036 | 9.66338 | 33601 ft | 490 kts | 175° |
| 2026-04-25 20:08 | 52.07671 | 9.67181 | 33904 ft | 490 kts | 175° |
| 2026-04-25 20:08 | 52.04302 | 9.68022 | 34223 ft | 489 kts | 175° |
| 2026-04-25 20:08 | 52.00941 | 9.68860 | 34521 ft | 488 kts | 175° |
| 2026-04-25 20:08 | 51.97588 | 9.69696 | 34839 ft | 487 kts | 175° |
| 2026-04-25 20:09 | 51.94237 | 9.70533 | 35081 ft | 487 kts | 175° |
| 2026-04-25 20:09 | 51.90916 | 9.71369 | 35147 ft | 482 kts | 175° |
| 2026-04-25 20:09 | 51.84321 | 9.73032 | 35148 ft | 478 kts | 175° |
| 2026-04-25 20:10 | 51.77756 | 9.74669 | 35146 ft | 477 kts | 175° |
| 2026-04-25 20:10 | 51.71190 | 9.76288 | 35137 ft | 477 kts | 175° |
| 2026-04-25 20:11 | 51.64635 | 9.77911 | 35139 ft | 477 kts | 175° |
| 2026-04-25 20:11 | 51.58071 | 9.79537 | 35138 ft | 477 kts | 175° |
| 2026-04-25 20:12 | 51.51520 | 9.81144 | 35141 ft | 476 kts | 175° |
| 2026-04-25 20:12 | 51.46092 | 9.82473 | 35138 ft | 475 kts | 175° |
| 2026-04-25 20:13 | 51.38447 | 9.84350 | 35136 ft | 475 kts | 175° |
| 2026-04-25 20:13 | 51.31970 | 9.85933 | 35136 ft | 475 kts | 175° |
| 2026-04-25 20:14 | 51.25451 | 9.87521 | 35147 ft | 474 kts | 175° |
| 2026-04-25 20:14 | 51.18932 | 9.87901 | 35147 ft | 465 kts | 188° |
| 2026-04-25 20:15 | 51.12464 | 9.87316 | 35148 ft | 466 kts | 188° |
| 2026-04-25 20:15 | 51.05992 | 9.86757 | 35150 ft | 466 kts | 187° |
| 2026-04-25 20:16 | 50.99525 | 9.86206 | 35150 ft | 465 kts | 187° |
| 2026-04-25 20:16 | 50.93070 | 9.85651 | 35151 ft | 464 kts | 187° |
| 2026-04-25 20:17 | 50.86637 | 9.85094 | 35150 ft | 463 kts | 187° |
| 2026-04-25 20:17 | 50.80213 | 9.84541 | 35147 ft | 462 kts | 187° |
| 2026-04-25 20:18 | 50.73794 | 9.83983 | 35148 ft | 461 kts | 187° |
| 2026-04-25 20:18 | 50.67380 | 9.83424 | 34805 ft | 464 kts | 187° |
| 2026-04-25 20:19 | 50.64158 | 9.83145 | 34177 ft | 464 kts | 187° |
| 2026-04-25 20:19 | 50.60941 | 9.82871 | 33552 ft | 462 kts | 187° |
| 2026-04-25 20:19 | 50.57734 | 9.82600 | 32924 ft | 460 kts | 187° |
| 2026-04-25 20:19 | 50.54542 | 9.82329 | 32299 ft | 459 kts | 187° |
| 2026-04-25 20:20 | 50.51355 | 9.82054 | 31673 ft | 458 kts | 187° |
| 2026-04-25 20:20 | 50.48180 | 9.81781 | 31050 ft | 456 kts | 187° |
| 2026-04-25 20:20 | 50.45015 | 9.81512 | 30420 ft | 455 kts | 187° |
| 2026-04-25 20:20 | 50.41865 | 9.81247 | 30031 ft | 448 kts | 187° |
| 2026-04-25 20:21 | 50.38775 | 9.80991 | 29501 ft | 445 kts | 187° |
| 2026-04-25 20:21 | 50.35690 | 9.80730 | 28875 ft | 444 kts | 187° |
| 2026-04-25 20:21 | 50.32602 | 9.80465 | 28247 ft | 443 kts | 187° |
| 2026-04-25 20:21 | 50.29528 | 9.80205 | 27619 ft | 442 kts | 187° |
| 2026-04-25 20:22 | 50.26465 | 9.79941 | 26994 ft | 440 kts | 187° |
| 2026-04-25 20:22 | 50.24448 | 9.79762 | 26580 ft | 439 kts | 187° |
| 2026-04-25 20:22 | 50.20428 | 9.79311 | 25753 ft | 435 kts | 189° |
| 2026-04-25 20:22 | 50.17385 | 9.78831 | 25129 ft | 433 kts | 190° |
| 2026-04-25 20:23 | 50.14399 | 9.78288 | 24497 ft | 431 kts | 191° |
| 2026-04-25 20:23 | 50.11454 | 9.77729 | 24190 ft | 420 kts | 191° |
| 2026-04-25 20:23 | 50.08641 | 9.77201 | 24124 ft | 404 kts | 191° |
| 2026-04-25 20:23 | 50.05860 | 9.76699 | 24145 ft | 395 kts | 191° |
| 2026-04-25 20:24 | 50.03134 | 9.76222 | 24147 ft | 393 kts | 190° |
| 2026-04-25 20:24 | 50.00423 | 9.75762 | 24147 ft | 392 kts | 190° |
| 2026-04-25 20:24 | 49.97743 | 9.75315 | 24146 ft | 392 kts | 190° |
| 2026-04-25 20:24 | 49.95027 | 9.74859 | 24146 ft | 392 kts | 190° |
| 2026-04-25 20:25 | 49.92282 | 9.74397 | 24145 ft | 392 kts | 190° |
| 2026-04-25 20:25 | 49.89572 | 9.73940 | 24146 ft | 392 kts | 190° |
| 2026-04-25 20:25 | 49.86856 | 9.73478 | 24146 ft | 392 kts | 190° |
| 2026-04-25 20:25 | 49.84146 | 9.73021 | 24146 ft | 392 kts | 190° |
| 2026-04-25 20:26 | 49.81432 | 9.72566 | 24146 ft | 392 kts | 190° |
| 2026-04-25 20:26 | 49.78724 | 9.72113 | 24147 ft | 392 kts | 190° |
| 2026-04-25 20:26 | 49.76046 | 9.71665 | 24146 ft | 392 kts | 190° |
| 2026-04-25 20:26 | 49.73338 | 9.71211 | 24146 ft | 392 kts | 190° |
| 2026-04-25 20:27 | 49.70590 | 9.70749 | 24143 ft | 392 kts | 190° |
| 2026-04-25 20:27 | 49.67923 | 9.70304 | 24049 ft | 390 kts | 190° |
| 2026-04-25 20:27 | 49.65201 | 9.69851 | 23577 ft | 387 kts | 190° |
| 2026-04-25 20:27 | 49.62567 | 9.69412 | 23126 ft | 385 kts | 190° |
| 2026-04-25 20:28 | 49.59879 | 9.68965 | 22681 ft | 382 kts | 190° |
| 2026-04-25 20:28 | 49.57286 | 9.68534 | 22259 ft | 379 kts | 190° |
| 2026-04-25 20:28 | 49.54675 | 9.68103 | 21828 ft | 376 kts | 190° |
| 2026-04-25 20:28 | 49.52084 | 9.67678 | 21413 ft | 373 kts | 190° |
| 2026-04-25 20:29 | 49.49480 | 9.67251 | 20984 ft | 370 kts | 190° |
| 2026-04-25 20:29 | 49.46960 | 9.66836 | 20581 ft | 367 kts | 190° |
| 2026-04-25 20:29 | 49.44426 | 9.66413 | 20162 ft | 365 kts | 190° |
| 2026-04-25 20:29 | 49.41915 | 9.65995 | 19749 ft | 362 kts | 190° |
| 2026-04-25 20:30 | 49.39413 | 9.65581 | 19354 ft | 360 kts | 190° |
| 2026-04-25 20:30 | 49.36935 | 9.65172 | 18954 ft | 357 kts | 190° |
| 2026-04-25 20:30 | 49.34476 | 9.64768 | 18549 ft | 355 kts | 190° |
| 2026-04-25 20:30 | 49.32033 | 9.64366 | 18165 ft | 352 kts | 190° |
| 2026-04-25 20:31 | 49.29604 | 9.63965 | 17785 ft | 349 kts | 190° |
| 2026-04-25 20:31 | 49.27195 | 9.63566 | 17394 ft | 348 kts | 190° |
| 2026-04-25 20:31 | 49.24800 | 9.63172 | 17016 ft | 346 kts | 190° |
| 2026-04-25 20:31 | 49.22415 | 9.62784 | 16648 ft | 343 kts | 189° |
| 2026-04-25 20:32 | 49.20042 | 9.62398 | 16274 ft | 341 kts | 189° |
| 2026-04-25 20:32 | 49.17686 | 9.62013 | 15911 ft | 340 kts | 189° |
| 2026-04-25 20:32 | 49.15340 | 9.61624 | 15548 ft | 338 kts | 189° |
| 2026-04-25 20:32 | 49.13012 | 9.61240 | 15184 ft | 336 kts | 189° |
| 2026-04-25 20:33 | 49.10693 | 9.60858 | 14827 ft | 334 kts | 189° |
| 2026-04-25 20:33 | 49.08392 | 9.60478 | 14479 ft | 332 kts | 189° |
| 2026-04-25 20:33 | 49.06094 | 9.60103 | 14134 ft | 330 kts | 189° |
| 2026-04-25 20:33 | 49.04583 | 9.59860 | 13891 ft | 329 kts | 189° |
| 2026-04-25 20:34 | 49.01563 | 9.59382 | 13552 ft | 322 kts | 189° |
| 2026-04-25 20:34 | 48.99366 | 9.59034 | 13353 ft | 314 kts | 189° |
| 2026-04-25 20:34 | 48.97202 | 9.58681 | 13015 ft | 310 kts | 189° |
| 2026-04-25 20:34 | 48.95077 | 9.58336 | 12403 ft | 307 kts | 189° |
| 2026-04-25 20:35 | 48.92958 | 9.57990 | 11811 ft | 305 kts | 189° |
| 2026-04-25 20:35 | 48.90866 | 9.57648 | 11199 ft | 302 kts | 189° |
| 2026-04-25 20:35 | 48.88785 | 9.57309 | 10626 ft | 298 kts | 189° |
| 2026-04-25 20:35 | 48.86736 | 9.56972 | 10044 ft | 294 kts | 189° |
| 2026-04-25 20:36 | 48.84707 | 9.56644 | 9328 ft | 293 kts | 189° |
| 2026-04-25 20:36 | 48.82637 | 9.56309 | 8299 ft | 303 kts | 189° |
| 2026-04-25 20:36 | 48.80535 | 9.55968 | 7482 ft | 303 kts | 189° |
| 2026-04-25 20:36 | 48.78445 | 9.55631 | 6708 ft | 301 kts | 188° |
| 2026-04-25 20:37 | 48.76443 | 9.54882 | 5946 ft | 293 kts | 211° |
| 2026-04-25 20:37 | 48.74964 | 9.52908 | 5270 ft | 282 kts | 241° |
| 2026-04-25 20:37 | 48.74284 | 9.50267 | 5013 ft | 258 kts | 256° |
| 2026-04-25 20:37 | 48.73789 | 9.47705 | 4397 ft | 255 kts | 256° |
| 2026-04-25 20:38 | 48.73312 | 9.45200 | 3989 ft | 233 kts | 256° |
| 2026-04-25 20:38 | 48.72889 | 9.42944 | 3682 ft | 214 kts | 256° |
| 2026-04-25 20:38 | 48.72492 | 9.40817 | 3402 ft | 204 kts | 256° |
| 2026-04-25 20:38 | 48.72126 | 9.38868 | 3162 ft | 185 kts | 256° |
| 2026-04-25 20:39 | 48.71788 | 9.37066 | 2907 ft | 171 kts | 256° |
| 2026-04-25 20:39 | 48.71471 | 9.35378 | 2714 ft | 159 kts | 256° |
| 2026-04-25 20:39 | 48.71175 | 9.33801 | 2483 ft | 152 kts | 256° |
| 2026-04-25 20:39 | 48.71081 | 9.33303 | 2416 ft | 150 kts | 255° |
| 2026-04-25 20:40 | 48.70614 | 9.30816 | 2087 ft | 145 kts | 255° |
| 2026-04-25 20:40 | 48.70339 | 9.29348 | 1891 ft | 145 kts | 255° |
| 2026-04-25 20:40 | 48.70062 | 9.27877 | 1707 ft | 145 kts | 255° |
| 2026-04-25 20:40 | 48.69785 | 9.26415 | 1514 ft | 144 kts | 255° |
| 2026-04-25 20:41 | 48.69510 | 9.24956 | 1324 ft | 144 kts | 255° |
| 2026-04-25 20:41 | 48.69237 | 9.23514 | 1209 ft | 134 kts | 254° |
| 2026-04-25 20:41 | 48.69017 | 9.22356 | 1231 ft | 99 kts | 254° |
| 2026-04-25 20:41 | 48.68852 | 9.21462 | 1256 ft | 79 kts | 257° |
| 2026-04-25 20:42 | 48.68717 | 9.20746 | 1273 ft | 50 kts | 253° |
| 2026-04-25 20:42 | 48.68687 | 9.20283 | 1278 ft | 41 kts | 281° |
| 2026-04-25 20:42 | 48.68740 | 9.20045 | 1290 ft | 19 kts | 304° |
| 2026-04-25 20:42 | 48.68816 | 9.19915 | 1297 ft | 11 kts | 318° |
| 2026-04-25 20:43 | 48.68858 | 9.19886 | 1300 ft | 3 kts | 340° |
| 2026-04-25 20:43 | 48.68888 | 9.19856 | 1303 ft | 9 kts | 299° |
| 2026-04-25 20:43 | 48.68870 | 9.19716 | 1307 ft | 19 kts | 254° |
| 2026-04-25 20:43 | 48.68826 | 9.19484 | 1312 ft | 25 kts | 254° |
| 2026-04-25 20:44 | 48.68799 | 9.19344 | 1314 ft | 9 kts | 254° |
| 2026-04-25 20:44 | 48.68815 | 9.19310 | 1315 ft | 3 kts | 344° |
| 2026-04-25 20:44 | 48.68836 | 9.19302 | 1315 ft | 3 kts | 346° |
| 2026-04-25 20:44 | 48.68849 | 9.19297 | 1315 ft | 1 kts | 344° |
| 2026-04-25 20:45 | 48.68867 | 9.19289 | 1315 ft | 2 kts | 344° |
| 2026-04-25 20:45 | 48.68870 | 9.19288 | 1315 ft | 0 kts | 344° |